New Chicago, Indiana
Current Conditions -  °F | °C
As of 11:45 AM on Wednesday 28 Jan 2015 (Local Time) from KGYY Reporting Station
Broken Clouds Broken Clouds  
Wind Chill: 24°   Ceiling: 25000
Heat Index: 34°   Visibility: 10mi
Dew Point: 12°   Wind: 14mph
Humidity: 41%   Direction: 170°S
Pressure: 30.24"   Gusts: NA
Location:  41.5196°N, 87.2427°W
Report Text: KGYY 281745Z 17012KT 10SM BKN250 01/M11 A3024
Loading
Personal Weather Stations






























Interactive Weather Map New forecast layout! Learn more

10-Day Weather Forecast

Advertisements
Track Severe Weather on mobile